Time;durP1;ratioP1;P1;durP2;ratioP2;P2;SDS_P1;SDS_P2;PMS_P1;PMS_P2;Temp;Humidity;BMP_temperature;BMP_pressure;BME280_temperature;BME280_humidity;BME280_pressure;Samples;Min_cycle;Max_cycle;Signal;HPM_P1;HPM_P2
2021/08/24 00:01:55;;;;;;;33.90;22.80;;;20.70;60.90;;;;;;5056282;28;20052;-58
2021/08/24 00:04:21;;;;;;;35.40;23.35;;;20.70;61.00;;;;;;5055709;28;20025;-58
2021/08/24 00:06:46;;;;;;;32.00;22.67;;;20.70;60.90;;;;;;5055822;28;20036;-58
2021/08/24 00:09:12;;;;;;;36.00;23.85;;;20.70;61.00;;;;;;5054881;28;20037;-58
2021/08/24 00:11:38;;;;;;;36.97;23.23;;;20.70;60.90;;;;;;5055384;28;20055;-58
2021/08/24 00:14:06;;;;;;;32.25;23.55;;;20.70;61.00;;;;;;5055406;28;20444;-57
2021/08/24 00:16:32;;;;;;;32.95;22.58;;;20.70;61.00;;;;;;5055173;28;20017;-58
2021/08/24 00:18:58;;;;;;;36.92;22.88;;;20.70;61.20;;;;;;5055288;28;20465;-57
2021/08/24 00:21:25;;;;;;;32.25;22.40;;;20.60;61.30;;;;;;5055757;28;20055;-57
2021/08/24 00:23:50;;;;;;;35.10;22.35;;;20.60;61.30;;;;;;5044098;28;20030;-58
2021/08/24 00:26:16;;;;;;;34.90;23.42;;;20.60;61.40;;;;;;5034909;28;20492;-57
2021/08/24 00:28:42;;;;;;;36.80;24.23;;;20.60;61.40;;;;;;5034455;28;20376;-57
2021/08/24 00:31:08;;;;;;;34.38;22.55;;;20.50;61.40;;;;;;5033592;28;20050;-58
2021/08/24 00:33:34;;;;;;;31.35;21.58;;;20.50;61.20;;;;;;5034368;28;20040;-58
2021/08/24 00:36:00;;;;;;;32.00;22.23;;;20.50;61.40;;;;;;5034020;28;20057;-58
2021/08/24 00:38:27;;;;;;;28.17;20.75;;;20.50;61.30;;;;;;5034350;28;20362;-58
2021/08/24 00:40:55;;;;;;;32.67;21.30;;;20.50;60.80;;;;;;5034981;28;20076;-58
2021/08/24 00:43:22;;;;;;;31.30;21.17;;;20.50;60.70;;;;;;5034291;28;20026;-58
2021/08/24 00:45:53;;;;;;;31.65;21.00;;;20.50;61.00;;;;;;5034623;28;20026;-58
2021/08/24 00:48:29;;;;;;;28.08;19.13;;;20.50;60.90;;;;;;5033909;28;20026;-58
2021/08/24 00:50:56;;;;;;;29.92;19.42;;;20.40;60.90;;;;;;5031224;28;20037;-57
2021/08/24 00:53:24;;;;;;;27.65;19.85;;;20.40;61.10;;;;;;5040478;28;20021;-58
2021/08/24 00:55:51;;;;;;;31.77;20.35;;;20.40;61.20;;;;;;5053914;28;20013;-58
2021/08/24 00:58:18;;;;;;;31.30;20.00;;;20.30;61.20;;;;;;5054743;28;20033;-55
2021/08/24 01:00:45;;;;;;;30.42;20.20;;;20.30;61.20;;;;;;5054289;28;20021;-56
2021/08/24 01:03:20;;;;;;;30.70;20.95;;;20.30;61.30;;;;;;5054265;28;20036;-57
2021/08/24 01:05:50;;;;;;;33.40;22.15;;;20.30;61.50;;;;;;5054218;28;20373;-58
2021/08/24 01:08:29;;;;;;;28.52;20.80;;;20.20;61.40;;;;;;5053971;28;20035;-57
2021/08/24 01:11:07;;;;;;;30.90;21.30;;;20.20;61.50;;;;;;5037479;28;20021;-57
2021/08/24 01:13:53;;;;;;;30.30;21.25;;;20.10;61.50;;;;;;5037825;28;20423;-56
2021/08/24 01:16:37;;;;;;;29.23;19.67;;;20.10;61.60;;;;;;5037294;28;20084;-58
2021/08/24 01:19:36;;;;;;;31.50;19.20;;;20.00;61.90;;;;;;5037941;28;20040;-57
2021/08/24 01:22:39;;;;;;;32.58;21.08;;;20.00;61.60;;;;;;5037523;28;20030;-58
2021/08/24 01:25:17;;;;;;;27.65;19.30;;;20.00;61.70;;;;;;5037092;28;20025;-58
2021/08/24 01:28:17;;;;;;;30.13;19.58;;;20.00;62.00;;;;;;5037183;28;20033;-57
2021/08/24 01:30:49;;;;;;;29.20;18.50;;;20.00;62.00;;;;;;5021263;28;20416;-58
2021/08/24 01:33:38;;;;;;;25.73;18.77;;;20.00;61.80;;;;;;5017533;28;20310;-58
2021/08/24 01:36:10;;;;;;;25.08;18.42;;;20.00;61.70;;;;;;4986478;28;20040;-58
2021/08/24 01:38:40;;;;;;;28.45;19.88;;;20.00;61.80;;;;;;5023008;28;20025;-58
2021/08/24 01:41:11;;;;;;;28.70;19.38;;;20.00;61.90;;;;;;5057408;28;20028;-58
2021/08/24 01:43:37;;;;;;;;;;;19.90;61.80;;;;;;5057301;28;20053;-58
2021/08/24 01:46:32;;;;;;;25.50;17.10;;;19.90;61.80;;;;;;5056994;28;20276;-58
2021/08/24 01:49:02;;;;;;;25.50;18.08;;;19.90;61.80;;;;;;5056674;28;20044;-58
2021/08/24 01:51:36;;;;;;;30.52;19.73;;;19.90;62.10;;;;;;5056803;28;20056;-58
2021/08/24 01:54:08;;;;;;;29.80;20.20;;;19.90;62.10;;;;;;5056301;28;20036;-58
2021/08/24 01:56:38;;;;;;;31.08;19.55;;;19.90;62.20;;;;;;5056470;28;20044;-57
2021/08/24 01:59:10;;;;;;;33.28;19.17;;;19.80;62.30;;;;;;5056680;28;20085;-58
2021/08/24 02:01:47;;;;;;;28.67;17.67;;;19.90;62.60;;;;;;5056496;28;20023;-58
2021/08/24 02:04:26;;;;;;;27.40;17.92;;;19.90;62.50;;;;;;5056868;28;20063;-58
2021/08/24 02:06:53;;;;;;;25.77;17.95;;;19.80;62.50;;;;;;5056999;28;20082;-58
2021/08/24 02:09:30;;;;;;;31.70;18.67;;;19.90;62.60;;;;;;5053050;28;20029;-58
2021/08/24 02:11:59;;;;;;;28.05;18.33;;;19.80;62.70;;;;;;5042137;28;20041;-58
2021/08/24 02:14:26;;;;;;;28.73;18.30;;;19.80;62.60;;;;;;5036876;28;20096;-58
2021/08/24 02:16:52;;;;;;;24.80;17.83;;;19.80;62.80;;;;;;5036371;28;20037;-58
2021/08/24 02:19:30;;;;;;;26.00;18.27;;;19.80;62.80;;;;;;5035023;28;20457;-58
2021/08/24 02:22:10;;;;;;;25.83;17.52;;;19.80;62.70;;;;;;5036400;28;20018;-58
2021/08/24 02:24:42;;;;;;;28.88;18.60;;;19.80;62.90;;;;;;5035990;28;20029;-58
2021/08/24 02:27:14;;;;;;;24.67;16.75;;;19.70;63.00;;;;;;5035999;28;20417;-58
2021/08/24 02:29:39;;;;;;;27.48;19.00;;;19.70;63.00;;;;;;5035428;28;20075;-57
2021/08/24 02:32:10;;;;;;;27.23;18.02;;;19.70;63.10;;;;;;5035171;28;20045;-58
2021/08/24 02:34:53;;;;;;;28.88;18.42;;;19.60;63.10;;;;;;5035741;28;20037;-58
2021/08/24 02:37:35;;;;;;;27.88;17.50;;;19.70;63.00;;;;;;5035632;28;20378;-58
2021/08/24 02:40:19;;;;;;;26.17;17.27;;;19.70;63.00;;;;;;5048117;28;20086;-58
2021/08/24 02:42:56;;;;;;;23.85;16.48;;;19.70;63.10;;;;;;5054938;28;20025;-58
2021/08/24 02:45:35;;;;;;;26.15;17.33;;;19.70;63.10;;;;;;5055165;28;20031;-58
2021/08/24 02:48:06;;;;;;;23.88;15.85;;;19.70;63.00;;;;;;5055014;28;20075;-58
2021/08/24 02:50:31;;;;;;;22.53;16.47;;;19.70;62.80;;;;;;5040337;28;20040;-58
2021/08/24 02:52:57;;;;;;;23.40;15.45;;;19.70;62.70;;;;;;5035273;28;20100;-58
2021/08/24 02:55:23;;;;;;;24.00;16.13;;;19.70;62.80;;;;;;5034940;28;20033;-57
2021/08/24 02:57:49;;;;;;;22.02;15.40;;;19.70;62.60;;;;;;5035365;28;20076;-58
2021/08/24 03:00:15;;;;;;;22.80;15.73;;;19.70;62.60;;;;;;5034870;28;20025;-58
2021/08/24 03:02:41;;;;;;;21.13;15.02;;;19.80;62.90;;;;;;5035168;28;20059;-58
2021/08/24 03:05:07;;;;;;;21.65;15.55;;;19.70;62.60;;;;;;5035037;28;20485;-58
2021/08/24 03:07:36;;;;;;;25.42;16.38;;;19.70;62.50;;;;;;5034808;28;20037;-57
2021/08/24 03:10:06;;;;;;;21.48;16.08;;;19.80;62.30;;;;;;5050723;28;20405;-58
2021/08/24 03:12:45;;;;;;;21.10;15.30;;;19.70;62.40;;;;;;5055268;28;20520;-58
2021/08/24 03:15:17;;;;;;;22.45;15.98;;;19.70;62.60;;;;;;5055125;28;20021;-58
2021/08/24 03:17:56;;;;;;;28.13;17.15;;;19.70;62.60;;;;;;5054964;28;20036;-57
2021/08/24 03:20:26;;;;;;;23.73;15.00;;;19.70;62.90;;;;;;5054391;28;20029;-58
2021/08/24 03:22:53;;;;;;;22.40;14.65;;;19.70;63.70;;;;;;5054552;28;20039;-58
2021/08/24 03:25:20;;;;;;;22.52;15.50;;;19.70;63.00;;;;;;5054148;28;20108;-57
2021/08/24 03:27:47;;;;;;;22.58;15.77;;;19.70;62.90;;;;;;5054515;28;20033;-57
2021/08/24 03:30:16;;;;;;;22.35;16.25;;;19.80;62.50;;;;;;5054383;28;20114;-57
2021/08/24 03:32:43;;;;;;;26.10;15.95;;;19.80;62.50;;;;;;5039099;28;20076;-58
2021/08/24 03:35:10;;;;;;;23.90;15.90;;;19.90;62.80;;;;;;5034116;28;20029;-58
2021/08/24 03:37:36;;;;;;;24.08;15.38;;;19.90;62.80;;;;;;5034931;28;20096;-58
2021/08/24 03:40:04;;;;;;;22.90;14.93;;;19.90;62.60;;;;;;5050329;28;20469;-58
2021/08/24 03:42:30;;;;;;;21.45;15.43;;;20.00;62.50;;;;;;5054239;28;20026;-58
2021/08/24 03:44:56;;;;;;;22.58;15.73;;;20.00;62.60;;;;;;5054724;28;20032;-58
2021/08/24 03:47:21;;;;;;;22.67;15.90;;;20.10;62.90;;;;;;5054374;28;20059;-58
2021/08/24 03:49:47;;;;;;;22.52;15.43;;;20.10;62.90;;;;;;5054546;28;20064;-58
2021/08/24 03:52:12;;;;;;;23.10;15.60;;;20.20;63.10;;;;;;5054635;28;20025;-56
2021/08/24 03:54:38;;;;;;;21.30;15.05;;;20.30;62.80;;;;;;5054391;28;20033;-56
2021/08/24 03:57:04;;;;;;;23.35;15.90;;;20.30;62.90;;;;;;5054442;28;20029;-58
2021/08/24 03:59:30;;;;;;;21.27;15.07;;;20.40;62.80;;;;;;5054498;28;20358;-57
2021/08/24 04:01:55;;;;;;;25.40;15.90;;;20.40;63.40;;;;;;5054287;28;20024;-58
2021/08/24 04:04:21;;;;;;;21.30;16.13;;;20.50;62.60;;;;;;5054773;28;20024;-57
2021/08/24 04:06:47;;;;;;;24.10;15.70;;;20.60;62.60;;;;;;5054832;28;20025;-57
2021/08/24 04:09:12;;;;;;;20.48;15.15;;;20.70;62.50;;;;;;5042406;28;20060;-57
2021/08/24 04:11:38;;;;;;;23.23;15.40;;;20.80;62.40;;;;;;5034723;28;20025;-57
2021/08/24 04:14:04;;;;;;;21.45;15.45;;;20.90;62.50;;;;;;5034857;28;20386;-58
2021/08/24 04:16:29;;;;;;;22.63;16.45;;;20.90;62.20;;;;;;5037807;28;20030;-58
2021/08/24 04:18:55;;;;;;;19.75;15.25;;;21.00;62.20;;;;;;5035235;28;20081;-58
2021/08/24 04:21:21;;;;;;;22.02;15.30;;;21.10;62.10;;;;;;5035269;28;20030;-58
2021/08/24 04:23:48;;;;;;;23.67;16.15;;;21.20;62.10;;;;;;5035522;28;20068;-58
2021/08/24 04:26:14;;;;;;;23.40;15.85;;;21.30;61.90;;;;;;5035098;28;20469;-58
2021/08/24 04:28:41;;;;;;;20.00;14.80;;;21.40;61.50;;;;;;5035705;28;20501;-58
2021/08/24 04:31:11;;;;;;;23.00;15.98;;;21.40;61.60;;;;;;5032667;28;20531;-58
2021/08/24 04:33:36;;;;;;;21.30;15.77;;;21.50;61.70;;;;;;5015320;28;20539;-57
2021/08/24 04:36:04;;;;;;;21.65;14.90;;;21.50;61.40;;;;;;5015775;28;20034;-58
2021/08/24 04:38:29;;;;;;;20.20;14.20;;;21.60;61.10;;;;;;5027679;28;20413;-56
2021/08/24 04:40:56;;;;;;;22.65;14.18;;;21.70;60.40;;;;;;5055406;28;20052;-58
2021/08/24 04:43:22;;;;;;;21.17;14.02;;;21.70;60.00;;;;;;5056594;28;20092;-57
2021/08/24 04:45:47;;;;;;;23.35;14.27;;;21.80;59.70;;;;;;5049029;28;20079;-57
2021/08/24 04:48:13;;;;;;;20.35;14.38;;;21.90;59.30;;;;;;5039004;28;20025;-54
2021/08/24 04:50:40;;;;;;;19.27;13.68;;;22.00;59.10;;;;;;5039077;28;20057;-57
2021/08/24 04:53:06;;;;;;;20.15;13.02;;;22.10;58.50;;;;;;5039210;28;20032;-57
2021/08/24 04:55:32;;;;;;;20.65;12.68;;;22.20;58.50;;;;;;5039442;28;20112;-57
2021/08/24 04:57:58;;;;;;;20.25;12.60;;;22.20;58.20;;;;;;5038767;28;20030;-58
2021/08/24 05:00:24;;;;;;;19.13;12.63;;;22.20;58.20;;;;;;5037957;28;20037;-58
2021/08/24 05:02:50;;;;;;;17.00;12.30;;;22.30;57.90;;;;;;5038502;28;20028;-58
2021/08/24 05:05:16;;;;;;;22.35;12.43;;;22.30;57.80;;;;;;5039010;28;20021;-58
2021/08/24 05:07:41;;;;;;;15.98;11.65;;;22.40;57.80;;;;;;5038520;28;20021;-58
2021/08/24 05:10:07;;;;;;;15.75;11.50;;;22.50;57.80;;;;;;5038302;28;20026;-58
2021/08/24 05:12:34;;;;;;;22.80;12.65;;;22.50;57.30;;;;;;5038590;28;20022;-58
2021/08/24 05:14:59;;;;;;;17.00;11.60;;;22.50;57.70;;;;;;5038217;28;20026;-57
2021/08/24 05:17:25;;;;;;;15.68;10.73;;;22.50;57.60;;;;;;5038525;28;20384;-58
2021/08/24 05:19:51;;;;;;;14.68;10.07;;;22.60;57.40;;;;;;5039020;28;20067;-58
2021/08/24 05:22:17;;;;;;;13.98;10.20;;;22.80;57.30;;;;;;5038015;28;20028;-58
2021/08/24 05:24:42;;;;;;;14.00;9.43;;;22.90;56.80;;;;;;5039847;28;20020;-58
2021/08/24 05:27:08;;;;;;;14.00;9.18;;;22.90;56.50;;;;;;5039308;28;20033;-58
2021/08/24 05:29:34;;;;;;;14.32;9.68;;;23.10;56.40;;;;;;5039474;28;20029;-58
2021/08/24 05:32:00;;;;;;;15.75;9.88;;;23.20;56.20;;;;;;5039033;28;20124;-58
2021/08/24 05:34:26;;;;;;;13.82;9.10;;;23.30;55.80;;;;;;5023042;28;20080;-58
2021/08/24 05:36:51;;;;;;;15.75;8.88;;;23.40;55.20;;;;;;5039849;28;20417;-58
2021/08/24 05:39:17;;;;;;;12.43;8.13;;;23.60;55.50;;;;;;5039059;28;20021;-58
2021/08/24 05:41:43;;;;;;;11.45;8.02;;;23.70;54.50;;;;;;5038385;28;20546;-57
2021/08/24 05:44:09;;;;;;;9.52;7.25;;;23.80;54.30;;;;;;5039112;28;20025;-58
2021/08/24 05:46:35;;;;;;;12.80;7.72;;;23.80;54.10;;;;;;5038741;28;20029;-58
2021/08/24 05:49:01;;;;;;;12.25;7.68;;;23.90;54.10;;;;;;5038367;28;20462;-58
2021/08/24 05:51:27;;;;;;;14.77;8.23;;;23.90;53.70;;;;;;5039585;28;20037;-58
2021/08/24 05:53:53;;;;;;;10.90;7.53;;;24.00;53.50;;;;;;5038780;28;20116;-58
2021/08/24 05:56:22;;;;;;;10.70;7.00;;;24.10;53.30;;;;;;5039470;28;20489;-58
2021/08/24 05:58:51;;;;;;;10.60;7.55;;;24.10;53.40;;;;;;5039735;28;20079;-57
2021/08/24 06:01:25;;;;;;;9.85;7.38;;;24.20;53.30;;;;;;5038462;28;20030;-58
2021/08/24 06:03:51;;;;;;;11.57;7.18;;;24.30;53.40;;;;;;5040077;28;20021;-58
2021/08/24 06:06:18;;;;;;;12.48;7.90;;;24.30;53.30;;;;;;5040633;28;20035;-58
2021/08/24 06:08:43;;;;;;;10.60;7.43;;;24.40;53.10;;;;;;5039568;28;20030;-58
2021/08/24 06:11:16;;;;;;;10.50;6.95;;;24.40;52.60;;;;;;5039525;28;20354;-57
2021/08/24 06:13:41;;;;;;;9.10;6.50;;;24.50;52.50;;;;;;5039736;28;20033;-58
2021/08/24 06:16:07;;;;;;;11.45;7.28;;;24.50;52.40;;;;;;5038930;28;20496;-58
2021/08/24 06:18:35;;;;;;;8.88;6.55;;;24.60;52.40;;;;;;5039706;28;20021;-57
2021/08/24 06:21:01;;;;;;;8.07;6.03;;;24.60;52.40;;;;;;5038793;28;20025;-58
2021/08/24 06:23:27;;;;;;;9.50;6.57;;;24.70;52.30;;;;;;5039164;28;20017;-58
2021/08/24 06:25:52;;;;;;;8.52;6.55;;;24.70;52.00;;;;;;5038536;28;20025;-58
2021/08/24 06:28:18;;;;;;;9.15;6.97;;;24.80;52.00;;;;;;5038497;28;20030;-58
2021/08/24 06:30:44;;;;;;;9.27;7.38;;;24.80;51.80;;;;;;5037728;28;20037;-58
2021/08/24 06:33:10;;;;;;;10.27;7.15;;;24.90;51.90;;;;;;5037880;28;20052;-58
2021/08/24 06:35:36;;;;;;;8.38;6.88;;;25.00;51.70;;;;;;5037417;28;20567;-58
2021/08/24 06:38:02;;;;;;;8.10;6.70;;;25.00;51.70;;;;;;5038271;28;20120;-57
2021/08/24 06:40:28;;;;;;;9.20;6.00;;;25.10;51.50;;;;;;5037606;28;20473;-57
2021/08/24 06:42:54;;;;;;;7.32;5.68;;;25.10;51.30;;;;;;5037511;28;20047;-58
2021/08/24 06:45:23;;;;;;;6.50;4.82;;;25.20;51.10;;;;;;5037356;28;20104;-58
2021/08/24 06:47:50;;;;;;;8.63;5.05;;;25.20;51.30;;;;;;5036731;28;20036;-57
2021/08/24 06:50:16;;;;;;;5.05;4.20;;;25.20;51.90;;;;;;5036315;28;20476;-58
2021/08/24 06:52:42;;;;;;;5.20;4.10;;;25.30;51.50;;;;;;5037144;28;20029;-58
2021/08/24 06:55:09;;;;;;;7.72;4.75;;;25.30;51.50;;;;;;5036453;28;20091;-58
2021/08/24 06:57:36;;;;;;;6.63;4.22;;;25.30;51.40;;;;;;5038225;28;20033;-58
2021/08/24 07:00:01;;;;;;;4.57;3.85;;;25.40;51.20;;;;;;5040483;28;20025;-58
2021/08/24 07:02:27;;;;;;;5.78;3.50;;;25.40;51.20;;;;;;5038279;28;20097;-58
2021/08/24 07:04:53;;;;;;;5.35;4.05;;;25.40;51.10;;;;;;5038157;28;20029;-58
2021/08/24 07:07:18;;;;;;;6.68;3.85;;;25.40;50.90;;;;;;5036756;28;20025;-57
2021/08/24 07:09:44;;;;;;;4.88;3.80;;;25.40;51.00;;;;;;5040056;28;20056;-58
2021/08/24 07:12:10;;;;;;;6.43;4.45;;;25.40;50.60;;;;;;5034265;28;20072;-58
2021/08/24 07:14:36;;;;;;;7.22;5.20;;;25.50;50.60;;;;;;5038506;28;20026;-58
2021/08/24 07:17:02;;;;;;;7.95;5.47;;;25.50;52.10;;;;;;5048244;28;20064;-58
2021/08/24 07:19:28;;;;;;;7.22;5.25;;;25.60;53.30;;;;;;5038275;28;20466;-58
2021/08/24 07:21:54;;;;;;;8.02;5.88;;;25.60;53.80;;;;;;5033958;28;20032;-58
2021/08/24 07:24:19;;;;;;;8.35;6.25;;;25.60;54.30;;;;;;5038317;28;20025;-58
2021/08/24 07:26:45;;;;;;;9.07;6.72;;;25.60;54.70;;;;;;5035920;28;20049;-59
2021/08/24 07:29:11;;;;;;;8.68;6.55;;;25.70;55.20;;;;;;5032428;28;20099;-58
2021/08/24 07:31:37;;;;;;;8.05;6.30;;;25.60;55.30;;;;;;5030278;28;20515;-58
2021/08/24 07:34:05;;;;;;;9.00;6.40;;;25.60;55.40;;;;;;5037126;28;20129;-58
2021/08/24 07:36:30;;;;;;;9.90;6.38;;;25.60;55.50;;;;;;5035189;28;20033;-58
2021/08/24 07:38:56;;;;;;;8.68;6.47;;;25.60;55.80;;;;;;5032960;28;20040;-58
2021/08/24 07:41:22;;;;;;;8.07;5.90;;;25.50;56.10;;;;;;5035475;28;20021;-58
2021/08/24 07:43:48;;;;;;;6.35;5.35;;;25.50;55.90;;;;;;5039452;28;20022;-58
2021/08/24 07:46:13;;;;;;;7.25;5.32;;;25.50;55.80;;;;;;5034446;28;20037;-58
2021/08/24 07:48:39;;;;;;;6.78;5.28;;;25.50;55.90;;;;;;5035402;28;20033;-58
2021/08/24 07:51:05;;;;;;;5.88;5.07;;;25.50;56.20;;;;;;5035556;28;20028;-58
2021/08/24 07:53:30;;;;;;;7.72;4.97;;;25.50;56.40;;;;;;5035896;28;20033;-58
2021/08/24 07:55:57;;;;;;;8.43;5.22;;;25.50;56.60;;;;;;5032292;28;20029;-58
2021/08/24 07:58:23;;;;;;;7.70;5.22;;;25.50;56.40;;;;;;5030261;28;20113;-58
2021/08/24 08:00:48;;;;;;;6.00;4.50;;;25.50;56.70;;;;;;5033847;28;20115;-58
2021/08/24 08:03:15;;;;;;;6.50;4.60;;;25.40;56.90;;;;;;5032691;28;20022;-58
2021/08/24 08:05:41;;;;;;;5.57;4.10;;;25.50;57.30;;;;;;5035669;28;20048;-58
2021/08/24 08:08:07;;;;;;;6.93;3.90;;;25.50;57.60;;;;;;5034520;28;20030;-58
2021/08/24 08:10:35;;;;;;;7.28;4.50;;;25.40;57.80;;;;;;5034910;28;20037;-58
2021/08/24 08:13:00;;;;;;;5.50;4.22;;;25.50;58.20;;;;;;5039191;28;20040;-58
2021/08/24 08:15:31;;;;;;;4.53;3.95;;;25.50;58.00;;;;;;5033614;28;20034;-58
2021/08/24 08:17:57;;;;;;;;;;;25.50;57.80;;;;;;5034900;28;20083;-58
2021/08/24 08:20:23;;;;;;;4.75;3.80;;;25.40;57.90;;;;;;5038062;28;19913;-58
2021/08/24 08:22:49;;;;;;;4.47;3.80;;;25.40;58.00;;;;;;5038598;28;20534;-58
2021/08/24 08:25:16;;;;;;;4.35;3.78;;;25.40;57.90;;;;;;5038450;28;20028;-58
2021/08/24 08:27:41;;;;;;;4.90;3.80;;;25.40;58.10;;;;;;5037679;28;20030;-57
2021/08/24 08:30:09;;;;;;;4.35;3.40;;;25.40;57.70;;;;;;5034070;28;20030;-58
2021/08/24 08:32:38;;;;;;;4.78;3.58;;;25.40;58.20;;;;;;5039360;28;20037;-58
2021/08/24 08:35:04;;;;;;;5.25;3.53;;;25.40;58.40;;;;;;5039527;28;20109;-58
2021/08/24 08:37:30;;;;;;;5.55;3.40;;;25.40;58.40;;;;;;5036600;28;20125;-58
2021/08/24 08:39:56;;;;;;;4.45;3.30;;;25.40;58.40;;;;;;5035572;28;20025;-58
2021/08/24 08:42:58;;;;;;;4.05;3.60;;;25.40;58.70;;;;;;5038195;28;20024;-58
2021/08/24 08:45:47;;;;;;;5.03;3.50;;;25.40;58.60;;;;;;5041138;28;20373;-58
2021/08/24 08:48:19;;;;;;;4.72;3.58;;;25.40;58.50;;;;;;5022426;28;20111;-58
2021/08/24 08:50:59;;;;;;;3.97;3.22;;;25.30;58.90;;;;;;5035061;28;20041;-58
2021/08/24 08:53:45;;;;;;;5.85;4.07;;;25.30;58.70;;;;;;5033381;28;20029;-58
2021/08/24 08:56:33;;;;;;;5.25;3.78;;;25.30;59.10;;;;;;5029651;28;20096;-58
2021/08/24 08:59:13;;;;;;;4.13;3.60;;;25.30;58.90;;;;;;5039074;28;20026;-58
2021/08/24 09:02:32;;;;;;;4.70;3.65;;;25.20;58.90;;;;;;5036255;28;20104;-59
2021/08/24 09:05:01;;;;;;;4.78;3.47;;;25.20;59.00;;;;;;4976047;28;20372;-58
2021/08/24 09:07:41;;;;;;;6.10;3.50;;;25.20;58.90;;;;;;4976035;28;20041;-58
2021/08/24 09:10:14;;;;;;;4.40;3.45;;;25.20;58.70;;;;;;5013742;28;20037;-58
2021/08/24 09:12:40;;;;;;;4.93;3.70;;;25.20;59.00;;;;;;5043523;28;20048;-58
2021/08/24 09:15:13;;;;;;;5.97;4.63;;;25.20;59.30;;;;;;5036567;28;20112;-58
2021/08/24 09:17:41;;;;;;;4.78;3.95;;;25.20;59.60;;;;;;5034446;28;20029;-58
2021/08/24 09:20:16;;;;;;;4.95;3.65;;;25.20;59.60;;;;;;5034245;28;20018;-58
2021/08/24 09:22:43;;;;;;;4.50;3.65;;;25.20;59.40;;;;;;5035046;28;20065;-58
2021/08/24 09:25:22;;;;;;;6.78;3.60;;;25.20;59.30;;;;;;5035011;28;20036;-58
2021/08/24 09:27:59;;;;;;;3.85;3.45;;;25.20;59.50;;;;;;5036116;28;20029;-58
2021/08/24 09:30:25;;;;;;;4.35;3.47;;;25.20;59.70;;;;;;5044509;28;20073;-58
2021/08/24 09:33:02;;;;;;;4.68;3.90;;;25.20;59.70;;;;;;5058164;28;20032;-57
2021/08/24 09:35:33;;;;;;;3.92;3.40;;;25.20;60.10;;;;;;5057991;28;20032;-58
2021/08/24 09:38:10;;;;;;;5.45;4.10;;;25.20;60.20;;;;;;5044347;28;20064;-58
2021/08/24 09:40:48;;;;;;;5.05;3.40;;;25.20;60.70;;;;;;5037967;28;20021;-56
2021/08/24 09:43:34;;;;;;;4.75;3.47;;;25.20;60.00;;;;;;5038430;28;20028;-58
2021/08/24 09:46:02;;;;;;;4.70;3.40;;;25.10;59.80;;;;;;5037774;28;20076;-58
2021/08/24 09:48:30;;;;;;;4.50;3.30;;;25.10;59.80;;;;;;5038361;28;20025;-58
2021/08/24 09:51:38;;;;;;;4.50;3.72;;;25.10;60.00;;;;;;5038434;28;20026;-58
2021/08/24 09:54:15;;;;;;;4.55;3.50;;;25.10;59.70;;;;;;5030144;28;20045;-58
2021/08/24 09:56:50;;;;;;;4.40;3.20;;;25.10;59.40;;;;;;5037792;28;20021;-58
2021/08/24 09:59:24;;;;;;;4.93;3.28;;;25.10;59.20;;;;;;5038471;28;20156;-58
2021/08/24 10:01:50;;;;;;;5.97;3.20;;;25.10;59.20;;;;;;5025677;28;20029;-57
2021/08/24 10:04:17;;;;;;;3.97;3.28;;;25.00;59.30;;;;;;5037308;28;20355;-58
2021/08/24 10:06:57;;;;;;;4.47;3.33;;;25.00;59.50;;;;;;5037249;28;20045;-57
2021/08/24 10:09:40;;;;;;;6.32;3.83;;;25.00;59.80;;;;;;5037199;28;20073;-59
2021/08/24 10:12:26;;;;;;;4.32;3.20;;;25.00;59.90;;;;;;5037147;28;20045;-58
2021/08/24 10:14:52;;;;;;;3.80;2.92;;;25.00;59.80;;;;;;5037145;28;20026;-58
2021/08/24 10:17:29;;;;;;;3.53;2.85;;;25.00;59.10;;;;;;5037446;28;20025;-58
2021/08/24 10:19:57;;;;;;;5.22;3.08;;;25.00;59.30;;;;;;5037378;28;20040;-58
2021/08/24 10:22:36;;;;;;;2.90;2.45;;;24.90;59.00;;;;;;5036939;28;20028;-58
2021/08/24 10:25:09;;;;;;;2.85;2.53;;;24.90;58.80;;;;;;5037204;28;20026;-58
2021/08/24 10:27:43;;;;;;;3.95;2.63;;;24.90;58.40;;;;;;5037102;28;20025;-57
2021/08/24 10:30:37;;;;;;;2.92;2.65;;;24.80;58.20;;;;;;5045088;28;20421;-58
2021/08/24 10:33:03;;;;;;;2.95;2.67;;;24.80;57.90;;;;;;5056257;28;20067;-57
2021/08/24 10:35:37;;;;;;;5.13;2.75;;;24.80;57.60;;;;;;5056906;28;20029;-58
2021/08/24 10:38:03;;;;;;;3.30;3.00;;;24.80;57.50;;;;;;5057041;28;20063;-58
2021/08/24 10:40:29;;;;;;;4.00;3.03;;;24.70;57.70;;;;;;5048904;28;20022;-58
2021/08/24 10:43:14;;;;;;;4.55;3.13;;;24.80;57.40;;;;;;5036728;28;20025;-57
2021/08/24 10:45:44;;;;;;;3.47;2.97;;;24.80;57.10;;;;;;5037218;28;20053;-58
2021/08/24 10:48:18;;;;;;;3.35;2.85;;;24.70;57.10;;;;;;5037008;28;20032;-58
2021/08/24 10:51:08;;;;;;;3.90;3.25;;;24.80;56.80;;;;;;5035788;28;20036;-58
2021/08/24 10:53:46;;;;;;;5.27;3.10;;;24.80;57.10;;;;;;5036499;28;20021;-58
2021/08/24 10:56:25;;;;;;;3.60;2.88;;;24.80;57.30;;;;;;5035948;28;20057;-58
2021/08/24 10:58:56;;;;;;;3.50;2.85;;;24.80;56.60;;;;;;5035060;28;20040;-58
2021/08/24 11:01:39;;;;;;;2.90;2.60;;;24.80;56.00;;;;;;5051735;28;20029;-58
2021/08/24 11:04:32;;;;;;;2.95;2.63;;;24.80;55.40;;;;;;5042757;28;20025;-58
2021/08/24 11:07:19;;;;;;;3.15;2.58;;;24.80;55.10;;;;;;5034350;28;20022;-59
2021/08/24 11:09:55;;;;;;;3.95;2.72;;;24.80;54.50;;;;;;5034743;28;20025;-58
2021/08/24 11:12:44;;;;;;;5.20;2.58;;;24.80;54.90;;;;;;5034415;28;20114;-58
2021/08/24 11:15:38;;;;;;;5.15;2.40;;;24.80;54.30;;;;;;5035946;28;20025;-58
2021/08/24 11:18:31;;;;;;;3.75;2.60;;;24.80;54.30;;;;;;5036396;28;20465;-58
2021/08/24 11:21:14;;;;;;;3.30;2.58;;;24.80;54.40;;;;;;5036104;28;20022;-58
2021/08/24 11:24:07;;;;;;;3.42;2.58;;;24.80;54.40;;;;;;5035530;28;20100;-57
2021/08/24 11:26:49;;;;;;;3.42;2.30;;;24.80;54.40;;;;;;5035995;28;20029;-58
2021/08/24 11:29:50;;;;;;;2.45;2.13;;;24.80;54.50;;;;;;5035944;28;20037;-58
2021/08/24 11:32:24;;;;;;;2.85;2.63;;;24.80;54.30;;;;;;5054742;28;20041;-59
2021/08/24 11:35:18;;;;;;;2.92;2.15;;;24.80;54.40;;;;;;5044294;28;20480;-58
2021/08/24 11:37:44;;;;;;;2.70;2.25;;;24.80;54.20;;;;;;5034592;28;20033;-58
2021/08/24 11:40:16;;;;;;;3.35;2.65;;;24.80;53.80;;;;;;5035625;28;20099;-58
2021/08/24 11:42:45;;;;;;;4.18;2.90;;;24.80;54.00;;;;;;5036139;28;20022;-58
2021/08/24 11:45:42;;;;;;;3.25;2.65;;;24.80;54.00;;;;;;5035540;28;20465;-58
2021/08/24 11:48:13;;;;;;;4.07;2.75;;;24.80;54.10;;;;;;5035766;28;20044;-58
2021/08/24 11:50:58;;;;;;;3.63;2.50;;;24.80;54.20;;;;;;5035472;28;20030;-58
2021/08/24 11:53:36;;;;;;;3.35;2.40;;;24.80;54.50;;;;;;5035838;28;20034;-58
2021/08/24 11:56:02;;;;;;;2.97;2.50;;;24.80;54.30;;;;;;5035224;28;20025;-58
2021/08/24 11:58:40;;;;;;;2.72;2.53;;;24.90;54.10;;;;;;5035100;28;20075;-58
2021/08/24 12:01:07;;;;;;;2.97;2.22;;;24.80;53.80;;;;;;5049895;28;20025;-58
2021/08/24 12:03:47;;;;;;;2.97;2.65;;;24.80;54.10;;;;;;5047876;28;20025;-58
2021/08/24 12:06:31;;;;;;;5.53;2.40;;;24.80;54.40;;;;;;5035427;28;20096;-58
2021/08/24 12:08:59;;;;;;;3.00;2.28;;;24.80;54.80;;;;;;5034907;28;20026;-58
2021/08/24 12:11:45;;;;;;;3.90;2.47;;;24.90;54.20;;;;;;5034772;28;20021;-59
2021/08/24 12:14:28;;;;;;;3.70;2.53;;;24.90;53.50;;;;;;5034990;28;20033;-58
2021/08/24 12:17:22;;;;;;;3.88;2.75;;;24.90;53.60;;;;;;5034384;28;20029;-59
2021/08/24 12:19:56;;;;;;;3.80;2.65;;;24.90;54.50;;;;;;5034769;28;20095;-58
2021/08/24 12:22:36;;;;;;;4.40;2.75;;;24.90;54.10;;;;;;5034591;28;20049;-58
2021/08/24 12:25:30;;;;;;;3.42;2.72;;;24.90;54.80;;;;;;5034733;28;20029;-58
2021/08/24 12:28:14;;;;;;;3.53;2.92;;;24.90;54.50;;;;;;5016906;28;20442;-58
2021/08/24 12:30:58;;;;;;;3.63;2.80;;;24.90;54.40;;;;;;5043504;28;20045;-58
2021/08/24 12:33:31;;;;;;;3.70;3.00;;;24.90;54.70;;;;;;5015713;28;20093;-58
2021/08/24 12:35:59;;;;;;;4.10;2.88;;;24.90;54.70;;;;;;5013827;28;20080;-59
2021/08/24 12:38:44;;;;;;;4.13;2.67;;;24.90;54.90;;;;;;5013819;28;20401;-58
2021/08/24 12:41:10;;;;;;;3.20;2.70;;;24.90;54.80;;;;;;5014150;28;20044;-58
2021/08/24 12:43:46;;;;;;;3.22;2.78;;;24.90;54.80;;;;;;5013939;28;20022;-59
2021/08/24 12:46:18;;;;;;;3.80;2.53;;;24.90;55.30;;;;;;5013916;28;20025;-58
2021/08/24 12:49:15;;;;;;;2.70;2.35;;;24.90;54.90;;;;;;5014222;28;20018;-58
2021/08/24 12:51:53;;;;;;;3.17;2.72;;;24.90;54.80;;;;;;5013844;28;20116;-58
2021/08/24 12:54:23;;;;;;;3.50;2.72;;;24.90;55.30;;;;;;5014010;28;20029;-58
2021/08/24 12:57:22;;;;;;;3.38;3.08;;;24.90;55.30;;;;;;5013470;28;20095;-59
2021/08/24 12:59:52;;;;;;;3.67;2.42;;;24.90;55.40;;;;;;4977423;28;20428;-59
2021/08/24 13:02:36;;;;;;;3.05;2.75;;;24.90;55.70;;;;;;5033621;28;20380;-58